sensor_id;sensor_type;location;lat;lon;timestamp;P1;durP1;ratioP1;P2;durP2;ratioP2
12469;SDS011;36499;46.484;13.832;2023-02-15T00:01:47;8.87;;;4.97;;
12469;SDS011;36499;46.484;13.832;2023-02-15T00:04:17;6.83;;;4.27;;
12469;SDS011;36499;46.484;13.832;2023-02-15T00:06:46;6.83;;;4.43;;
12469;SDS011;36499;46.484;13.832;2023-02-15T00:09:13;7.97;;;4.87;;
12469;SDS011;36499;46.484;13.832;2023-02-15T00:11:40;6.83;;;3.70;;
12469;SDS011;36499;46.484;13.832;2023-02-15T00:14:15;9.20;;;4.03;;
12469;SDS011;36499;46.484;13.832;2023-02-15T00:16:44;6.97;;;3.87;;
12469;SDS011;36499;46.484;13.832;2023-02-15T00:19:13;8.97;;;4.80;;
12469;SDS011;36499;46.484;13.832;2023-02-15T00:21:44;5.90;;;3.97;;
12469;SDS011;36499;46.484;13.832;2023-02-15T00:24:13;8.23;;;4.73;;
12469;SDS011;36499;46.484;13.832;2023-02-15T00:26:42;6.33;;;3.80;;
12469;SDS011;36499;46.484;13.832;2023-02-15T00:29:11;4.97;;;3.20;;
12469;SDS011;36499;46.484;13.832;2023-02-15T00:31:41;5.67;;;2.90;;
12469;SDS011;36499;46.484;13.832;2023-02-15T00:34:10;5.43;;;3.20;;
12469;SDS011;36499;46.484;13.832;2023-02-15T00:36:42;4.60;;;2.93;;
12469;SDS011;36499;46.484;13.832;2023-02-15T00:39:10;6.70;;;3.40;;
12469;SDS011;36499;46.484;13.832;2023-02-15T00:41:38;6.00;;;3.63;;
12469;SDS011;36499;46.484;13.832;2023-02-15T00:44:05;5.03;;;3.40;;
12469;SDS011;36499;46.484;13.832;2023-02-15T00:46:33;6.70;;;3.53;;
12469;SDS011;36499;46.484;13.832;2023-02-15T00:49:02;5.07;;;3.43;;
12469;SDS011;36499;46.484;13.832;2023-02-15T00:51:30;4.70;;;3.33;;
12469;SDS011;36499;46.484;13.832;2023-02-15T00:53:59;6.03;;;3.27;;
12469;SDS011;36499;46.484;13.832;2023-02-15T00:56:27;4.77;;;2.80;;
12469;SDS011;36499;46.484;13.832;2023-02-15T00:58:54;4.63;;;2.80;;
12469;SDS011;36499;46.484;13.832;2023-02-15T01:01:21;5.87;;;2.83;;
12469;SDS011;36499;46.484;13.832;2023-02-15T01:03:50;3.33;;;2.67;;
12469;SDS011;36499;46.484;13.832;2023-02-15T01:06:18;4.70;;;3.00;;
12469;SDS011;36499;46.484;13.832;2023-02-15T01:08:46;5.13;;;2.93;;
12469;SDS011;36499;46.484;13.832;2023-02-15T01:11:17;4.90;;;2.67;;
12469;SDS011;36499;46.484;13.832;2023-02-15T01:13:48;4.30;;;2.60;;
12469;SDS011;36499;46.484;13.832;2023-02-15T01:16:16;4.83;;;3.20;;
12469;SDS011;36499;46.484;13.832;2023-02-15T01:18:43;4.63;;;2.90;;
12469;SDS011;36499;46.484;13.832;2023-02-15T01:21:11;2.80;;;2.30;;
12469;SDS011;36499;46.484;13.832;2023-02-15T01:23:42;6.27;;;2.63;;
12469;SDS011;36499;46.484;13.832;2023-02-15T01:26:09;5.50;;;2.60;;
12469;SDS011;36499;46.484;13.832;2023-02-15T01:28:38;4.20;;;2.53;;
12469;SDS011;36499;46.484;13.832;2023-02-15T01:31:06;3.00;;;2.30;;
12469;SDS011;36499;46.484;13.832;2023-02-15T01:33:35;4.57;;;3.80;;
12469;SDS011;36499;46.484;13.832;2023-02-15T01:36:03;6.00;;;4.10;;
12469;SDS011;36499;46.484;13.832;2023-02-15T01:38:31;7.70;;;5.00;;
12469;SDS011;36499;46.484;13.832;2023-02-15T01:41:00;5.60;;;4.43;;
12469;SDS011;36499;46.484;13.832;2023-02-15T01:43:44;6.23;;;2.83;;
12469;SDS011;36499;46.484;13.832;2023-02-15T01:46:14;3.23;;;2.20;;
12469;SDS011;36499;46.484;13.832;2023-02-15T01:48:46;2.90;;;2.23;;
12469;SDS011;36499;46.484;13.832;2023-02-15T01:51:19;3.77;;;2.27;;
12469;SDS011;36499;46.484;13.832;2023-02-15T01:53:51;3.53;;;2.43;;
12469;SDS011;36499;46.484;13.832;2023-02-15T01:56:26;4.97;;;2.40;;
12469;SDS011;36499;46.484;13.832;2023-02-15T01:58:58;3.73;;;2.20;;
12469;SDS011;36499;46.484;13.832;2023-02-15T02:01:32;4.40;;;2.50;;
12469;SDS011;36499;46.484;13.832;2023-02-15T02:04:00;3.47;;;2.60;;
12469;SDS011;36499;46.484;13.832;2023-02-15T02:06:37;7.63;;;3.07;;
12469;SDS011;36499;46.484;13.832;2023-02-15T02:09:06;3.63;;;2.40;;
12469;SDS011;36499;46.484;13.832;2023-02-15T02:11:34;3.53;;;2.40;;
12469;SDS011;36499;46.484;13.832;2023-02-15T02:14:02;5.77;;;2.60;;
12469;SDS011;36499;46.484;13.832;2023-02-15T02:16:32;3.87;;;2.30;;
12469;SDS011;36499;46.484;13.832;2023-02-15T02:19:19;6.00;;;2.90;;
12469;SDS011;36499;46.484;13.832;2023-02-15T02:22:43;3.23;;;2.20;;
12469;SDS011;36499;46.484;13.832;2023-02-15T02:29:22;3.53;;;2.47;;
12469;SDS011;36499;46.484;13.832;2023-02-15T02:36:00;13.33;;;5.73;;
12469;SDS011;36499;46.484;13.832;2023-02-15T02:38:44;11.60;;;4.07;;
12469;SDS011;36499;46.484;13.832;2023-02-15T02:41:31;5.60;;;3.40;;
12469;SDS011;36499;46.484;13.832;2023-02-15T02:44:08;11.17;;;3.40;;
12469;SDS011;36499;46.484;13.832;2023-02-15T02:46:46;12.30;;;5.57;;
12469;SDS011;36499;46.484;13.832;2023-02-15T02:49:28;10.97;;;5.07;;
12469;SDS011;36499;46.484;13.832;2023-02-15T02:51:59;4.77;;;3.03;;
12469;SDS011;36499;46.484;13.832;2023-02-15T02:54:27;6.23;;;3.40;;
12469;SDS011;36499;46.484;13.832;2023-02-15T02:56:56;8.47;;;3.87;;
12469;SDS011;36499;46.484;13.832;2023-02-15T02:59:30;5.43;;;3.60;;
12469;SDS011;36499;46.484;13.832;2023-02-15T03:02:05;10.70;;;5.00;;
12469;SDS011;36499;46.484;13.832;2023-02-15T03:04:42;8.30;;;4.13;;
12469;SDS011;36499;46.484;13.832;2023-02-15T03:07:23;6.70;;;3.53;;
12469;SDS011;36499;46.484;13.832;2023-02-15T03:09:54;6.97;;;3.93;;
12469;SDS011;36499;46.484;13.832;2023-02-15T03:12:26;5.07;;;3.47;;
12469;SDS011;36499;46.484;13.832;2023-02-15T03:14:59;6.50;;;4.00;;
12469;SDS011;36499;46.484;13.832;2023-02-15T03:17:31;4.70;;;3.10;;
12469;SDS011;36499;46.484;13.832;2023-02-15T03:20:03;4.83;;;3.07;;
12469;SDS011;36499;46.484;13.832;2023-02-15T03:22:40;4.53;;;2.90;;
12469;SDS011;36499;46.484;13.832;2023-02-15T03:25:14;4.50;;;2.60;;
12469;SDS011;36499;46.484;13.832;2023-02-15T03:27:48;4.70;;;3.17;;
12469;SDS011;36499;46.484;13.832;2023-02-15T03:30:20;3.93;;;2.50;;
12469;SDS011;36499;46.484;13.832;2023-02-15T03:32:51;3.80;;;2.80;;
12469;SDS011;36499;46.484;13.832;2023-02-15T03:35:21;5.63;;;2.97;;
12469;SDS011;36499;46.484;13.832;2023-02-15T03:37:57;6.33;;;2.97;;
12469;SDS011;36499;46.484;13.832;2023-02-15T03:40:28;5.20;;;2.93;;
12469;SDS011;36499;46.484;13.832;2023-02-15T03:43:18;6.87;;;4.27;;
12469;SDS011;36499;46.484;13.832;2023-02-15T03:45:57;6.30;;;3.63;;
12469;SDS011;36499;46.484;13.832;2023-02-15T03:48:34;7.50;;;3.67;;
12469;SDS011;36499;46.484;13.832;2023-02-15T03:51:09;5.77;;;3.90;;
12469;SDS011;36499;46.484;13.832;2023-02-15T03:54:01;5.87;;;3.50;;
12469;SDS011;36499;46.484;13.832;2023-02-15T03:56:33;5.90;;;3.20;;
12469;SDS011;36499;46.484;13.832;2023-02-15T03:59:03;4.40;;;3.03;;
12469;SDS011;36499;46.484;13.832;2023-02-15T04:01:52;7.03;;;3.00;;
12469;SDS011;36499;46.484;13.832;2023-02-15T04:04:38;3.97;;;3.00;;
12469;SDS011;36499;46.484;13.832;2023-02-15T04:07:14;6.83;;;3.20;;
12469;SDS011;36499;46.484;13.832;2023-02-15T04:09:41;5.60;;;3.17;;
12469;SDS011;36499;46.484;13.832;2023-02-15T04:12:25;5.30;;;3.60;;
12469;SDS011;36499;46.484;13.832;2023-02-15T04:14:52;5.60;;;3.17;;
12469;SDS011;36499;46.484;13.832;2023-02-15T04:17:37;3.93;;;3.03;;
12469;SDS011;36499;46.484;13.832;2023-02-15T04:20:04;6.63;;;3.93;;
12469;SDS011;36499;46.484;13.832;2023-02-15T04:22:53;8.07;;;3.87;;
12469;SDS011;36499;46.484;13.832;2023-02-15T04:25:37;4.40;;;2.70;;
12469;SDS011;36499;46.484;13.832;2023-02-15T04:28:04;4.97;;;2.83;;
12469;SDS011;36499;46.484;13.832;2023-02-15T04:30:32;5.17;;;3.10;;
12469;SDS011;36499;46.484;13.832;2023-02-15T04:32:59;4.37;;;3.23;;
12469;SDS011;36499;46.484;13.832;2023-02-15T04:35:27;5.87;;;3.73;;
12469;SDS011;36499;46.484;13.832;2023-02-15T04:37:55;7.90;;;3.80;;
12469;SDS011;36499;46.484;13.832;2023-02-15T04:40:22;4.70;;;3.60;;
12469;SDS011;36499;46.484;13.832;2023-02-15T04:42:50;6.77;;;3.70;;
12469;SDS011;36499;46.484;13.832;2023-02-15T04:45:17;9.47;;;4.00;;
12469;SDS011;36499;46.484;13.832;2023-02-15T04:47:44;6.50;;;3.60;;
12469;SDS011;36499;46.484;13.832;2023-02-15T04:50:11;5.07;;;3.10;;
12469;SDS011;36499;46.484;13.832;2023-02-15T04:52:38;5.60;;;3.10;;
12469;SDS011;36499;46.484;13.832;2023-02-15T04:55:08;4.80;;;2.90;;
12469;SDS011;36499;46.484;13.832;2023-02-15T04:57:35;4.63;;;2.87;;
12469;SDS011;36499;46.484;13.832;2023-02-15T05:00:02;4.17;;;2.60;;
12469;SDS011;36499;46.484;13.832;2023-02-15T05:02:30;5.00;;;2.70;;
12469;SDS011;36499;46.484;13.832;2023-02-15T05:04:57;7.77;;;2.50;;
12469;SDS011;36499;46.484;13.832;2023-02-15T05:07:24;6.53;;;4.00;;
12469;SDS011;36499;46.484;13.832;2023-02-15T05:09:51;19.40;;;10.10;;
12469;SDS011;36499;46.484;13.832;2023-02-15T05:12:20;11.07;;;7.27;;
12469;SDS011;36499;46.484;13.832;2023-02-15T05:14:47;7.43;;;5.13;;
12469;SDS011;36499;46.484;13.832;2023-02-15T05:17:14;4.87;;;3.27;;
12469;SDS011;36499;46.484;13.832;2023-02-15T05:19:41;3.73;;;2.90;;
12469;SDS011;36499;46.484;13.832;2023-02-15T05:22:08;3.77;;;2.77;;
12469;SDS011;36499;46.484;13.832;2023-02-15T05:24:35;4.33;;;3.00;;
12469;SDS011;36499;46.484;13.832;2023-02-15T05:27:21;3.87;;;2.53;;
12469;SDS011;36499;46.484;13.832;2023-02-15T05:30:06;2.93;;;2.30;;
12469;SDS011;36499;46.484;13.832;2023-02-15T05:32:36;2.83;;;2.17;;
12469;SDS011;36499;46.484;13.832;2023-02-15T05:35:04;3.90;;;2.13;;
12469;SDS011;36499;46.484;13.832;2023-02-15T05:37:32;6.00;;;2.30;;
12469;SDS011;36499;46.484;13.832;2023-02-15T05:39:59;2.43;;;1.97;;
12469;SDS011;36499;46.484;13.832;2023-02-15T05:42:28;4.17;;;2.10;;
12469;SDS011;36499;46.484;13.832;2023-02-15T05:44:55;3.03;;;2.07;;
12469;SDS011;36499;46.484;13.832;2023-02-15T05:47:22;4.30;;;2.90;;
12469;SDS011;36499;46.484;13.832;2023-02-15T05:49:50;4.40;;;2.80;;
12469;SDS011;36499;46.484;13.832;2023-02-15T05:52:17;3.13;;;2.20;;
12469;SDS011;36499;46.484;13.832;2023-02-15T05:54:44;2.40;;;1.80;;
12469;SDS011;36499;46.484;13.832;2023-02-15T05:57:11;6.67;;;2.73;;
12469;SDS011;36499;46.484;13.832;2023-02-15T05:59:39;3.13;;;2.20;;
12469;SDS011;36499;46.484;13.832;2023-02-15T06:02:07;2.90;;;2.00;;
12469;SDS011;36499;46.484;13.832;2023-02-15T06:04:34;3.20;;;2.40;;
12469;SDS011;36499;46.484;13.832;2023-02-15T06:07:01;3.47;;;2.13;;
12469;SDS011;36499;46.484;13.832;2023-02-15T06:09:28;4.37;;;2.13;;
12469;SDS011;36499;46.484;13.832;2023-02-15T06:11:55;4.43;;;2.43;;
12469;SDS011;36499;46.484;13.832;2023-02-15T06:14:22;3.60;;;2.43;;
12469;SDS011;36499;46.484;13.832;2023-02-15T06:16:51;5.20;;;2.73;;
12469;SDS011;36499;46.484;13.832;2023-02-15T06:19:18;4.03;;;2.50;;
12469;SDS011;36499;46.484;13.832;2023-02-15T06:21:46;5.43;;;2.60;;
12469;SDS011;36499;46.484;13.832;2023-02-15T06:24:13;4.90;;;2.70;;
12469;SDS011;36499;46.484;13.832;2023-02-15T06:26:40;4.23;;;3.30;;
12469;SDS011;36499;46.484;13.832;2023-02-15T06:29:07;10.13;;;4.83;;
12469;SDS011;36499;46.484;13.832;2023-02-15T06:31:34;6.03;;;3.57;;
12469;SDS011;36499;46.484;13.832;2023-02-15T06:34:02;15.33;;;7.87;;
12469;SDS011;36499;46.484;13.832;2023-02-15T06:36:30;9.20;;;4.90;;
12469;SDS011;36499;46.484;13.832;2023-02-15T06:38:57;5.87;;;3.80;;
12469;SDS011;36499;46.484;13.832;2023-02-15T06:41:24;7.97;;;5.27;;
12469;SDS011;36499;46.484;13.832;2023-02-15T06:43:51;10.03;;;5.90;;
12469;SDS011;36499;46.484;13.832;2023-02-15T06:46:18;8.00;;;4.57;;
12469;SDS011;36499;46.484;13.832;2023-02-15T06:48:45;6.87;;;3.50;;
12469;SDS011;36499;46.484;13.832;2023-02-15T06:51:14;6.50;;;3.70;;
12469;SDS011;36499;46.484;13.832;2023-02-15T06:53:41;5.00;;;3.40;;
12469;SDS011;36499;46.484;13.832;2023-02-15T06:56:09;5.53;;;3.73;;
12469;SDS011;36499;46.484;13.832;2023-02-15T06:58:37;6.90;;;4.07;;
12469;SDS011;36499;46.484;13.832;2023-02-15T07:01:06;12.93;;;9.03;;
12469;SDS011;36499;46.484;13.832;2023-02-15T07:03:34;13.23;;;9.33;;
12469;SDS011;36499;46.484;13.832;2023-02-15T07:06:02;7.77;;;5.57;;
12469;SDS011;36499;46.484;13.832;2023-02-15T07:08:34;3.20;;;2.33;;
12469;SDS011;36499;46.484;13.832;2023-02-15T07:11:02;4.57;;;2.83;;
12469;SDS011;36499;46.484;13.832;2023-02-15T07:13:47;3.67;;;2.27;;
12469;SDS011;36499;46.484;13.832;2023-02-15T07:16:14;6.57;;;2.63;;
12469;SDS011;36499;46.484;13.832;2023-02-15T07:18:41;4.83;;;3.10;;
12469;SDS011;36499;46.484;13.832;2023-02-15T07:21:08;5.03;;;3.63;;
12469;SDS011;36499;46.484;13.832;2023-02-15T07:23:37;5.00;;;3.67;;
12469;SDS011;36499;46.484;13.832;2023-02-15T07:26:06;3.33;;;2.53;;
12469;SDS011;36499;46.484;13.832;2023-02-15T07:28:34;3.43;;;2.47;;
12469;SDS011;36499;46.484;13.832;2023-02-15T07:31:02;4.97;;;2.80;;
12469;SDS011;36499;46.484;13.832;2023-02-15T07:33:30;6.13;;;3.63;;
12469;SDS011;36499;46.484;13.832;2023-02-15T07:35:57;4.33;;;2.70;;
12469;SDS011;36499;46.484;13.832;2023-02-15T07:38:27;4.77;;;2.80;;
12469;SDS011;36499;46.484;13.832;2023-02-15T07:40:59;5.30;;;3.37;;
12469;SDS011;36499;46.484;13.832;2023-02-15T07:43:27;5.23;;;2.27;;
12469;SDS011;36499;46.484;13.832;2023-02-15T07:45:58;2.10;;;1.60;;
12469;SDS011;36499;46.484;13.832;2023-02-15T07:48:26;1.80;;;1.40;;
12469;SDS011;36499;46.484;13.832;2023-02-15T07:50:54;2.23;;;1.33;;
12469;SDS011;36499;46.484;13.832;2023-02-15T07:53:25;2.53;;;1.40;;
12469;SDS011;36499;46.484;13.832;2023-02-15T07:55:52;1.33;;;1.00;;
12469;SDS011;36499;46.484;13.832;2023-02-15T07:58:21;2.40;;;1.20;;
12469;SDS011;36499;46.484;13.832;2023-02-15T08:01:09;1.00;;;1.00;;
12469;SDS011;36499;46.484;13.832;2023-02-15T08:03:36;2.10;;;1.43;;
12469;SDS011;36499;46.484;13.832;2023-02-15T08:06:03;2.83;;;2.00;;
12469;SDS011;36499;46.484;13.832;2023-02-15T08:08:31;1.80;;;1.50;;
12469;SDS011;36499;46.484;13.832;2023-02-15T08:11:00;2.30;;;1.10;;
12469;SDS011;36499;46.484;13.832;2023-02-15T08:13:50;2.10;;;1.30;;
12469;SDS011;36499;46.484;13.832;2023-02-15T08:16:24;0.80;;;0.80;;
12469;SDS011;36499;46.484;13.832;2023-02-15T08:18:54;1.20;;;1.10;;
12469;SDS011;36499;46.484;13.832;2023-02-15T08:21:23;1.40;;;1.10;;
12469;SDS011;36499;46.484;13.832;2023-02-15T08:23:53;2.93;;;1.00;;
12469;SDS011;36499;46.484;13.832;2023-02-15T08:26:21;1.50;;;1.20;;
12469;SDS011;36499;46.484;13.832;2023-02-15T08:28:49;0.80;;;0.80;;
12469;SDS011;36499;46.484;13.832;2023-02-15T08:31:17;4.07;;;1.20;;
12469;SDS011;36499;46.484;13.832;2023-02-15T08:33:46;0.77;;;0.77;;
12469;SDS011;36499;46.484;13.832;2023-02-15T08:36:15;2.20;;;1.00;;
12469;SDS011;36499;46.484;13.832;2023-02-15T08:38:45;0.97;;;0.93;;
12469;SDS011;36499;46.484;13.832;2023-02-15T08:41:13;0.80;;;0.80;;
12469;SDS011;36499;46.484;13.832;2023-02-15T08:43:44;0.70;;;0.70;;
12469;SDS011;36499;46.484;13.832;2023-02-15T08:46:14;1.57;;;1.00;;
12469;SDS011;36499;46.484;13.832;2023-02-15T08:48:42;0.70;;;0.70;;
12469;SDS011;36499;46.484;13.832;2023-02-15T08:51:11;0.80;;;0.80;;
12469;SDS011;36499;46.484;13.832;2023-02-15T08:53:41;0.70;;;0.70;;
12469;SDS011;36499;46.484;13.832;2023-02-15T08:56:11;2.07;;;0.87;;
12469;SDS011;36499;46.484;13.832;2023-02-15T08:58:38;1.33;;;0.90;;
12469;SDS011;36499;46.484;13.832;2023-02-15T09:01:09;0.87;;;0.80;;
12469;SDS011;36499;46.484;13.832;2023-02-15T09:03:38;1.50;;;0.80;;
12469;SDS011;36499;46.484;13.832;2023-02-15T09:06:06;1.30;;;1.00;;
12469;SDS011;36499;46.484;13.832;2023-02-15T09:08:34;1.00;;;0.90;;
12469;SDS011;36499;46.484;13.832;2023-02-15T09:11:05;0.90;;;0.80;;
12469;SDS011;36499;46.484;13.832;2023-02-15T09:13:34;1.30;;;0.87;;
12469;SDS011;36499;46.484;13.832;2023-02-15T09:16:03;1.67;;;0.90;;
12469;SDS011;36499;46.484;13.832;2023-02-15T09:18:33;0.80;;;0.70;;
12469;SDS011;36499;46.484;13.832;2023-02-15T09:21:06;0.97;;;0.70;;
12469;SDS011;36499;46.484;13.832;2023-02-15T09:23:35;0.80;;;0.80;;
12469;SDS011;36499;46.484;13.832;2023-02-15T09:26:04;1.20;;;0.80;;
12469;SDS011;36499;46.484;13.832;2023-02-15T09:28:33;0.70;;;0.70;;
12469;SDS011;36499;46.484;13.832;2023-02-15T09:31:05;0.80;;;0.70;;
12469;SDS011;36499;46.484;13.832;2023-02-15T09:33:35;0.93;;;0.80;;
12469;SDS011;36499;46.484;13.832;2023-02-15T09:36:13;0.70;;;0.70;;
12469;SDS011;36499;46.484;13.832;2023-02-15T09:38:42;0.63;;;0.60;;
12469;SDS011;36499;46.484;13.832;2023-02-15T09:41:15;1.20;;;0.80;;
12469;SDS011;36499;46.484;13.832;2023-02-15T09:44:20;0.80;;;0.80;;
12469;SDS011;36499;46.484;13.832;2023-02-15T09:47:04;0.77;;;0.70;;
12469;SDS011;36499;46.484;13.832;2023-02-15T09:49:58;1.43;;;0.83;;
12469;SDS011;36499;46.484;13.832;2023-02-15T09:55:37;0.97;;;0.87;;
12469;SDS011;36499;46.484;13.832;2023-02-15T09:58:16;0.83;;;0.83;;
12469;SDS011;36499;46.484;13.832;2023-02-15T10:00:53;1.50;;;1.07;;
12469;SDS011;36499;46.484;13.832;2023-02-15T10:03:33;1.40;;;1.17;;
12469;SDS011;36499;46.484;13.832;2023-02-15T10:06:25;1.17;;;1.00;;
12469;SDS011;36499;46.484;13.832;2023-02-15T10:12:17;4.90;;;1.80;;
12469;SDS011;36499;46.484;13.832;2023-02-15T10:15:09;6.53;;;2.93;;
12469;SDS011;36499;46.484;13.832;2023-02-15T10:17:53;3.20;;;2.13;;
12469;SDS011;36499;46.484;13.832;2023-02-15T10:20:59;2.73;;;1.53;;
12469;SDS011;36499;46.484;13.832;2023-02-15T10:23:44;1.50;;;1.03;;
12469;SDS011;36499;46.484;13.832;2023-02-15T10:26:36;2.80;;;1.77;;
12469;SDS011;36499;46.484;13.832;2023-02-15T10:29:12;2.27;;;1.70;;
12469;SDS011;36499;46.484;13.832;2023-02-15T10:31:54;2.10;;;1.90;;
12469;SDS011;36499;46.484;13.832;2023-02-15T10:34:37;2.17;;;1.90;;
12469;SDS011;36499;46.484;13.832;2023-02-15T10:40:10;3.80;;;1.97;;
12469;SDS011;36499;46.484;13.832;2023-02-15T10:42:56;3.10;;;1.53;;
12469;SDS011;36499;46.484;13.832;2023-02-15T10:46:11;2.40;;;1.40;;
12469;SDS011;36499;46.484;13.832;2023-02-15T10:49:07;3.17;;;1.80;;
12469;SDS011;36499;46.484;13.832;2023-02-15T10:52:01;4.70;;;1.80;;
12469;SDS011;36499;46.484;13.832;2023-02-15T10:54:48;3.67;;;2.00;;
12469;SDS011;36499;46.484;13.832;2023-02-15T10:57:25;3.60;;;1.87;;
12469;SDS011;36499;46.484;13.832;2023-02-15T11:00:09;3.03;;;2.00;;
12469;SDS011;36499;46.484;13.832;2023-02-15T11:02:52;5.17;;;2.20;;
12469;SDS011;36499;46.484;13.832;2023-02-15T11:05:47;8.03;;;1.90;;
12469;SDS011;36499;46.484;13.832;2023-02-15T11:08:29;2.70;;;2.00;;
12469;SDS011;36499;46.484;13.832;2023-02-15T11:11:02;1.70;;;1.53;;
12469;SDS011;36499;46.484;13.832;2023-02-15T11:13:36;3.13;;;1.97;;
12469;SDS011;36499;46.484;13.832;2023-02-15T11:16:13;2.57;;;2.00;;
12469;SDS011;36499;46.484;13.832;2023-02-15T11:18:46;3.60;;;2.10;;
12469;SDS011;36499;46.484;13.832;2023-02-15T11:21:22;3.67;;;2.50;;
12469;SDS011;36499;46.484;13.832;2023-02-15T11:23:58;4.63;;;2.87;;
12469;SDS011;36499;46.484;13.832;2023-02-15T11:26:29;7.70;;;3.70;;
12469;SDS011;36499;46.484;13.832;2023-02-15T11:29:06;6.87;;;3.80;;
12469;SDS011;36499;46.484;13.832;2023-02-15T11:31:43;5.00;;;3.60;;
12469;SDS011;36499;46.484;13.832;2023-02-15T11:34:15;4.87;;;3.50;;
12469;SDS011;36499;46.484;13.832;2023-02-15T11:36:51;6.03;;;4.00;;
12469;SDS011;36499;46.484;13.832;2023-02-15T11:39:24;5.37;;;3.83;;
12469;SDS011;36499;46.484;13.832;2023-02-15T11:41:57;5.37;;;4.17;;
12469;SDS011;36499;46.484;13.832;2023-02-15T11:44:33;7.50;;;4.60;;
12469;SDS011;36499;46.484;13.832;2023-02-15T11:47:09;8.37;;;4.63;;
12469;SDS011;36499;46.484;13.832;2023-02-15T11:49:38;5.13;;;3.80;;
12469;SDS011;36499;46.484;13.832;2023-02-15T11:52:05;4.83;;;3.90;;
12469;SDS011;36499;46.484;13.832;2023-02-15T11:54:39;6.20;;;4.10;;
12469;SDS011;36499;46.484;13.832;2023-02-15T11:57:12;6.27;;;4.63;;
12469;SDS011;36499;46.484;13.832;2023-02-15T11:59:49;8.37;;;5.90;;
12469;SDS011;36499;46.484;13.832;2023-02-15T12:02:26;7.70;;;5.73;;
12469;SDS011;36499;46.484;13.832;2023-02-15T12:04:56;10.83;;;6.50;;
12469;SDS011;36499;46.484;13.832;2023-02-15T12:07:28;8.57;;;6.07;;
12469;SDS011;36499;46.484;13.832;2023-02-15T12:10:03;9.30;;;6.33;;
12469;SDS011;36499;46.484;13.832;2023-02-15T12:12:45;8.87;;;6.37;;
12469;SDS011;36499;46.484;13.832;2023-02-15T12:15:12;12.73;;;7.27;;
12469;SDS011;36499;46.484;13.832;2023-02-15T12:17:48;10.33;;;7.13;;
12469;SDS011;36499;46.484;13.832;2023-02-15T12:20:21;10.13;;;6.57;;
12469;SDS011;36499;46.484;13.832;2023-02-15T12:22:59;10.27;;;7.07;;
12469;SDS011;36499;46.484;13.832;2023-02-15T12:25:32;13.47;;;7.47;;
12469;SDS011;36499;46.484;13.832;2023-02-15T12:28:15;11.93;;;7.83;;
12469;SDS011;36499;46.484;13.832;2023-02-15T12:30:53;12.47;;;7.90;;
12469;SDS011;36499;46.484;13.832;2023-02-15T12:33:26;12.60;;;8.17;;
12469;SDS011;36499;46.484;13.832;2023-02-15T12:35:57;15.03;;;8.77;;
12469;SDS011;36499;46.484;13.832;2023-02-15T12:38:29;13.83;;;8.87;;
12469;SDS011;36499;46.484;13.832;2023-02-15T12:40:58;10.53;;;8.43;;
12469;SDS011;36499;46.484;13.832;2023-02-15T12:43:31;13.00;;;9.03;;
12469;SDS011;36499;46.484;13.832;2023-02-15T12:46:14;12.67;;;8.70;;
12469;SDS011;36499;46.484;13.832;2023-02-15T12:51:47;11.27;;;8.43;;
12469;SDS011;36499;46.484;13.832;2023-02-15T12:54:18;13.90;;;8.73;;
12469;SDS011;36499;46.484;13.832;2023-02-15T12:57:13;10.83;;;7.97;;
12469;SDS011;36499;46.484;13.832;2023-02-15T12:59:49;14.23;;;8.60;;
12469;SDS011;36499;46.484;13.832;2023-02-15T13:02:25;16.00;;;8.33;;
12469;SDS011;36499;46.484;13.832;2023-02-15T13:05:06;11.67;;;8.47;;
12469;SDS011;36499;46.484;13.832;2023-02-15T13:07:45;13.47;;;9.17;;
12469;SDS011;36499;46.484;13.832;2023-02-15T13:10:24;11.70;;;8.40;;
12469;SDS011;36499;46.484;13.832;2023-02-15T13:12:55;11.70;;;9.07;;
12469;SDS011;36499;46.484;13.832;2023-02-15T13:15:25;12.97;;;8.53;;
12469;SDS011;36499;46.484;13.832;2023-02-15T13:18:00;12.90;;;8.17;;
12469;SDS011;36499;46.484;13.832;2023-02-15T13:20:32;10.90;;;7.93;;
12469;SDS011;36499;46.484;13.832;2023-02-15T13:23:05;12.20;;;7.10;;
12469;SDS011;36499;46.484;13.832;2023-02-15T13:25:50;11.70;;;7.80;;
12469;SDS011;36499;46.484;13.832;2023-02-15T13:28:18;9.07;;;7.00;;
12469;SDS011;36499;46.484;13.832;2023-02-15T13:30:51;9.73;;;6.33;;
12469;SDS011;36499;46.484;13.832;2023-02-15T13:33:21;8.17;;;6.00;;
12469;SDS011;36499;46.484;13.832;2023-02-15T13:36:00;13.27;;;6.60;;
12469;SDS011;36499;46.484;13.832;2023-02-15T13:38:44;7.23;;;4.97;;
12469;SDS011;36499;46.484;13.832;2023-02-15T13:41:23;6.03;;;4.60;;
12469;SDS011;36499;46.484;13.832;2023-02-15T13:44:01;5.60;;;4.30;;
12469;SDS011;36499;46.484;13.832;2023-02-15T13:46:45;6.53;;;3.80;;
12469;SDS011;36499;46.484;13.832;2023-02-15T13:49:32;4.00;;;3.10;;
12469;SDS011;36499;46.484;13.832;2023-02-15T13:52:19;5.27;;;3.73;;
12469;SDS011;36499;46.484;13.832;2023-02-15T13:54:56;4.07;;;3.00;;
12469;SDS011;36499;46.484;13.832;2023-02-15T13:57:57;2.97;;;2.67;;
12469;SDS011;36499;46.484;13.832;2023-02-15T14:00:51;3.37;;;2.50;;
12469;SDS011;36499;46.484;13.832;2023-02-15T14:07:16;2.03;;;1.80;;
12469;SDS011;36499;46.484;13.832;2023-02-15T14:10:19;1.90;;;1.40;;
12469;SDS011;36499;46.484;13.832;2023-02-15T14:13:13;2.33;;;1.90;;
12469;SDS011;36499;46.484;13.832;2023-02-15T14:16:32;1.40;;;1.00;;
12469;SDS011;36499;46.484;13.832;2023-02-15T14:19:13;2.90;;;1.50;;
12469;SDS011;36499;46.484;13.832;2023-02-15T14:21:51;3.73;;;1.60;;
12469;SDS011;36499;46.484;13.832;2023-02-15T14:24:30;2.10;;;1.60;;
12469;SDS011;36499;46.484;13.832;2023-02-15T14:27:10;1.37;;;1.10;;
12469;SDS011;36499;46.484;13.832;2023-02-15T14:29:49;1.10;;;1.00;;
12469;SDS011;36499;46.484;13.832;2023-02-15T14:32:24;3.03;;;1.20;;
12469;SDS011;36499;46.484;13.832;2023-02-15T14:35:01;1.40;;;1.17;;
12469;SDS011;36499;46.484;13.832;2023-02-15T14:37:36;1.87;;;1.20;;
12469;SDS011;36499;46.484;13.832;2023-02-15T14:40:16;1.47;;;0.90;;
12469;SDS011;36499;46.484;13.832;2023-02-15T14:43:14;1.57;;;1.20;;
12469;SDS011;36499;46.484;13.832;2023-02-15T14:45:53;2.47;;;1.20;;
12469;SDS011;36499;46.484;13.832;2023-02-15T14:48:25;2.20;;;1.20;;
12469;SDS011;36499;46.484;13.832;2023-02-15T14:50:57;1.20;;;1.10;;
12469;SDS011;36499;46.484;13.832;2023-02-15T14:53:35;1.87;;;1.20;;
12469;SDS011;36499;46.484;13.832;2023-02-15T14:56:12;1.70;;;1.03;;
12469;SDS011;36499;46.484;13.832;2023-02-15T14:58:55;1.30;;;1.20;;
12469;SDS011;36499;46.484;13.832;2023-02-15T15:01:42;2.07;;;1.23;;
12469;SDS011;36499;46.484;13.832;2023-02-15T15:04:30;3.00;;;1.20;;
12469;SDS011;36499;46.484;13.832;2023-02-15T15:07:03;6.93;;;4.33;;
12469;SDS011;36499;46.484;13.832;2023-02-15T15:09:48;2.57;;;1.20;;
12469;SDS011;36499;46.484;13.832;2023-02-15T15:12:39;3.40;;;1.10;;
12469;SDS011;36499;46.484;13.832;2023-02-15T15:15:07;1.40;;;1.00;;
12469;SDS011;36499;46.484;13.832;2023-02-15T15:17:58;1.43;;;1.23;;
12469;SDS011;36499;46.484;13.832;2023-02-15T15:20:37;1.97;;;1.70;;
12469;SDS011;36499;46.484;13.832;2023-02-15T15:26:22;4.53;;;2.80;;
12469;SDS011;36499;46.484;13.832;2023-02-15T15:28:55;4.50;;;2.60;;
12469;SDS011;36499;46.484;13.832;2023-02-15T15:31:25;1.20;;;1.00;;
12469;SDS011;36499;46.484;13.832;2023-02-15T15:34:13;1.83;;;1.00;;
12469;SDS011;36499;46.484;13.832;2023-02-15T15:43:25;2.03;;;1.60;;
12469;SDS011;36499;46.484;13.832;2023-02-15T15:46:58;0.93;;;0.90;;
12469;SDS011;36499;46.484;13.832;2023-02-15T15:49:40;1.00;;;0.90;;